Lawton, North Dakota
Current Conditions -  °F | °C
As of 2:35 AM on Monday 26 Jan 2015 (Local Time) from KDVL Reporting Station
Clear Clear  
Wind Chill: 25°   Ceiling: Unl
Heat Index: 36°   Visibility: 10mi
Dew Point: 30°   Wind: 17mph
Humidity: 81%   Direction: 290°WNW
Pressure: 29.67"   Gusts: NA
Location:  48.3°N, 98.37°W
Report Text: KDVL 260835Z AUTO 29015KT 10SM CLR 02/M01 A2967 RMK AO1
Loading
Personal Weather Stations






























Interactive Weather Map New forecast layout! Learn more

10-Day Weather Forecast

Advertisements
Track Severe Weather on mobile